Time;durP1;ratioP1;P1;durP2;ratioP2;P2;SDS_P1;SDS_P2;PMS_P1;PMS_P2;Temp;Humidity;BMP_temperature;BMP_pressure;BME280_temperature;BME280_humidity;BME280_pressure;Samples;Min_cycle;Max_cycle;Signal;HPM_P1;HPM_P2
2020/12/15 00:00:45;;;;;;;1.38;0.50;;;19.50;57.70;;;;;;5066228;28;20050;-50
2020/12/15 00:03:12;;;;;;;2.10;0.40;;;19.50;57.70;;;;;;5063080;28;20048;-43
2020/12/15 00:05:38;;;;;;;2.88;0.80;;;19.50;57.70;;;;;;5063991;28;20048;-41
2020/12/15 00:08:05;;;;;;;3.45;0.40;;;19.50;57.70;;;;;;5058412;28;20455;-47
2020/12/15 00:10:32;;;;;;;2.35;0.50;;;19.50;57.80;;;;;;5063149;28;20170;-43
2020/12/15 00:12:58;;;;;;;1.38;0.65;;;19.50;57.80;;;;;;5067844;28;20126;-44
2020/12/15 00:15:25;;;;;;;1.40;0.40;;;19.50;57.80;;;;;;5060774;28;20114;-43
2020/12/15 00:17:52;;;;;;;0.63;0.50;;;19.50;57.90;;;;;;5063929;28;20041;-41
2020/12/15 00:20:18;;;;;;;4.32;0.73;;;19.50;57.90;;;;;;5058761;28;20063;-46
2020/12/15 00:22:45;;;;;;;1.30;0.35;;;19.50;57.90;;;;;;5061893;28;20157;-47
2020/12/15 00:25:11;;;;;;;3.47;0.22;;;19.50;58.00;;;;;;5058667;28;20094;-43
2020/12/15 00:27:39;;;;;;;4.03;0.50;;;19.50;58.00;;;;;;5064673;28;20508;-46
2020/12/15 00:30:05;;;;;;;3.55;0.75;;;19.50;58.00;;;;;;5061887;28;20500;-41
2020/12/15 00:32:32;;;;;;;1.48;0.77;;;19.50;58.00;;;;;;5065182;28;20099;-42
2020/12/15 00:34:58;;;;;;;0.77;0.60;;;19.40;58.00;;;;;;5068158;28;20099;-42
2020/12/15 00:37:25;;;;;;;1.20;0.35;;;19.40;58.00;;;;;;5068673;28;20175;-45
2020/12/15 00:39:51;;;;;;;1.55;0.50;;;19.40;58.10;;;;;;5070043;28;20530;-46
2020/12/15 00:42:18;;;;;;;1.00;0.47;;;19.40;58.10;;;;;;5064636;28;20536;-48
2020/12/15 00:44:45;;;;;;;4.70;0.30;;;19.40;58.10;;;;;;5067981;28;20148;-44
2020/12/15 00:47:11;;;;;;;3.75;0.20;;;19.40;58.10;;;;;;5066410;28;20131;-43
2020/12/15 00:49:38;;;;;;;2.33;0.60;;;19.40;58.10;;;;;;5066729;28;20051;-42
2020/12/15 00:52:05;;;;;;;1.23;0.47;;;19.40;58.10;;;;;;5070516;28;20596;-43
2020/12/15 00:54:31;;;;;;;0.40;0.40;;;19.40;58.10;;;;;;5068559;28;20110;-45
2020/12/15 00:56:58;;;;;;;1.30;0.63;;;19.40;58.10;;;;;;5067224;28;20036;-42
2020/12/15 00:59:25;;;;;;;0.80;0.47;;;19.40;58.10;;;;;;5065976;28;20068;-44
2020/12/15 01:01:57;;;;;;;1.77;0.68;;;19.40;58.10;;;;;;5065956;28;20048;-44
2020/12/15 01:04:23;;;;;;;1.33;0.70;;;19.40;58.20;;;;;;5060462;28;20119;-44
2020/12/15 01:06:50;;;;;;;0.82;0.30;;;19.40;58.20;;;;;;5070992;28;20118;-42
2020/12/15 01:09:19;;;;;;;0.57;0.28;;;19.30;58.10;;;;;;5065074;28;20094;-42
2020/12/15 01:11:46;;;;;;;0.65;0.10;;;19.30;58.20;;;;;;5065964;28;20055;-45
2020/12/15 01:14:17;;;;;;;0.80;0.57;;;19.40;58.30;;;;;;5068102;28;20500;-42
2020/12/15 01:16:47;;;;;;;2.22;0.30;;;19.40;58.30;;;;;;5063885;28;20124;-45
2020/12/15 01:19:15;;;;;;;1.33;0.32;;;19.40;58.40;;;;;;5067455;28;20059;-45
2020/12/15 01:21:43;;;;;;;1.50;0.30;;;19.30;58.30;;;;;;5067117;28;20059;-44
2020/12/15 01:24:09;;;;;;;0.80;0.30;;;19.30;58.30;;;;;;5061593;28;20056;-43
2020/12/15 01:26:56;;;;;;;0.30;0.10;;;19.30;58.40;;;;;;5067663;28;20045;-42
2020/12/15 01:29:23;;;;;;;0.82;0.22;;;19.30;58.40;;;;;;5064993;28;20067;-42
2020/12/15 01:31:49;;;;;;;2.05;0.38;;;19.30;58.40;;;;;;5064161;28;20076;-44
2020/12/15 01:34:26;;;;;;;1.02;0.28;;;19.30;58.40;;;;;;5065673;28;20119;-43
2020/12/15 01:36:56;;;;;;;1.85;0.32;;;19.30;58.50;;;;;;5070643;28;20079;-42
2020/12/15 01:39:25;;;;;;;0.30;0.10;;;19.30;58.40;;;;;;5052850;28;20037;-56
2020/12/15 01:41:58;;;;;;;1.05;0.10;;;19.30;58.50;;;;;;5062672;28;20048;-43
2020/12/15 01:44:25;;;;;;;0.57;0.20;;;19.30;58.50;;;;;;5067284;28;20075;-43
2020/12/15 01:46:53;;;;;;;2.67;0.20;;;19.30;58.50;;;;;;5065846;28;20411;-45
2020/12/15 01:49:28;;;;;;;1.38;0.43;;;19.30;58.50;;;;;;5065958;28;20041;-43
2020/12/15 01:51:59;;;;;;;0.35;0.10;;;19.30;58.50;;;;;;5063860;28;20063;-43
2020/12/15 01:57:25;;;;;;;0.25;0.10;;;19.30;58.50;;;;;;5105651;23;20756;-45
2020/12/15 02:00:05;;;;;;;0.47;0.20;;;19.20;58.50;;;;;;4951888;28;20113;-42
2020/12/15 02:02:44;;;;;;;0.35;0.20;;;19.30;58.60;;;;;;4961066;28;20047;-51
2020/12/15 02:05:23;;;;;;;0.60;0.25;;;19.20;58.60;;;;;;4946711;29;20052;-44
2020/12/15 02:07:51;;;;;;;0.55;0.17;;;19.20;58.60;;;;;;4956569;28;20043;-42
2020/12/15 02:10:19;;;;;;;1.13;0.20;;;19.20;58.60;;;;;;4947430;28;20043;-42
2020/12/15 02:12:59;;;;;;;1.85;0.63;;;19.20;58.60;;;;;;4945055;29;20043;-42
2020/12/15 02:15:26;;;;;;;0.52;0.10;;;19.20;58.70;;;;;;4965702;28;20074;-42
2020/12/15 02:18:02;;;;;;;2.15;0.20;;;19.20;58.70;;;;;;4966246;28;20062;-44
2020/12/15 02:20:34;;;;;;;0.63;0.20;;;19.20;58.70;;;;;;4959084;28;20069;-42
2020/12/15 02:23:10;;;;;;;1.60;0.10;;;19.20;58.70;;;;;;4963468;28;20066;-46
2020/12/15 02:25:44;;;;;;;0.40;0.20;;;19.20;58.70;;;;;;4945491;29;20043;-45
2020/12/15 02:28:11;;;;;;;1.50;0.28;;;19.20;58.70;;;;;;4955352;28;20039;-42
2020/12/15 02:30:40;;;;;;;0.38;0.28;;;19.20;58.70;;;;;;4950747;28;20419;-44
2020/12/15 02:33:14;;;;;;;0.65;0.10;;;19.20;58.60;;;;;;4963262;28;20181;-43
2020/12/15 02:35:44;;;;;;;0.20;0.10;;;19.20;58.60;;;;;;4967130;28;20051;-43
2020/12/15 02:38:13;;;;;;;0.85;0.10;;;19.20;58.60;;;;;;4959892;28;20061;-42
2020/12/15 02:40:40;;;;;;;0.57;0.10;;;19.20;58.60;;;;;;4960083;28;20534;-44
2020/12/15 02:43:10;;;;;;;0.30;0.10;;;19.20;58.60;;;;;;4963738;28;20074;-42
2020/12/15 02:45:41;;;;;;;0.30;0.30;;;19.20;58.60;;;;;;4955790;28;20034;-42
2020/12/15 02:48:12;;;;;;;0.20;0.10;;;19.20;58.60;;;;;;4967887;28;20562;-43
2020/12/15 02:50:40;;;;;;;0.20;0.10;;;19.20;58.60;;;;;;4965460;28;20137;-44
2020/12/15 02:53:18;;;;;;;0.10;0.10;;;19.20;58.60;;;;;;4958818;28;20047;-42
2020/12/15 02:55:46;;;;;;;0.63;0.10;;;19.20;58.60;;;;;;4944752;28;20039;-43
2020/12/15 02:58:20;;;;;;;0.10;0.10;;;19.20;58.60;;;;;;4948376;28;20050;-46
2020/12/15 03:00:51;;;;;;;0.10;0.10;;;19.20;58.60;;;;;;4963690;28;20058;-42
2020/12/15 03:03:19;;;;;;;0.20;0.10;;;19.20;58.60;;;;;;4951469;28;20055;-45
2020/12/15 03:05:55;;;;;;;0.73;0.30;;;19.20;58.60;;;;;;4941774;28;20051;-43
2020/12/15 03:08:23;;;;;;;0.40;0.08;;;19.20;58.60;;;;;;4964363;28;20407;-42
2020/12/15 03:10:51;;;;;;;0.30;0.10;;;19.10;58.60;;;;;;4958240;28;20467;-47
2020/12/15 03:13:18;;;;;;;0.38;0.10;;;19.10;58.60;;;;;;4963580;28;20099;-41
2020/12/15 03:15:44;;;;;;;0.38;0.20;;;19.20;58.70;;;;;;4964500;28;20043;-43
2020/12/15 03:18:16;;;;;;;3.80;0.10;;;19.20;58.70;;;;;;4951501;28;20126;-45
2020/12/15 03:20:47;;;;;;;0.20;0.20;;;19.20;58.70;;;;;;4954166;28;20055;-44
2020/12/15 03:23:16;;;;;;;0.20;0.10;;;19.20;58.70;;;;;;4946162;28;20150;-45
2020/12/15 03:25:44;;;;;;;0.20;0.20;;;19.20;59.30;;;;;;4949111;28;20061;-42
2020/12/15 03:28:11;;;;;;;0.13;0.10;;;19.10;58.60;;;;;;4949233;28;20051;-42
2020/12/15 03:30:41;;;;;;;0.28;0.10;;;19.10;58.60;;;;;;4964386;28;20039;-47
2020/12/15 03:33:08;;;;;;;0.40;0.10;;;19.20;58.70;;;;;;4963609;28;20058;-46
2020/12/15 03:35:34;;;;;;;1.17;0.10;;;19.20;58.70;;;;;;4953099;28;20043;-50
2020/12/15 03:38:07;;;;;;;0.90;0.13;;;19.20;59.30;;;;;;4958883;28;20457;-43
2020/12/15 03:40:46;;;;;;;0.68;0.10;;;19.10;58.60;;;;;;4947341;28;20071;-46
2020/12/15 03:43:31;;;;;;;0.20;0.10;;;19.10;58.60;;;;;;4957487;28;20138;-42
2020/12/15 03:46:13;;;;;;;0.75;0.10;;;19.20;58.70;;;;;;4949601;28;20047;-42
2020/12/15 03:48:40;;;;;;;0.20;0.10;;;19.10;58.70;;;;;;4933931;28;20043;-48
2020/12/15 03:51:08;;;;;;;0.65;0.10;;;19.10;58.70;;;;;;4964011;28;20047;-42
2020/12/15 03:53:53;;;;;;;0.22;0.10;;;19.10;58.70;;;;;;4967932;28;20035;-42
2020/12/15 03:56:23;;;;;;;0.20;0.10;;;19.20;58.70;;;;;;4948207;28;20051;-48
2020/12/15 03:58:51;;;;;;;0.30;0.30;;;19.10;58.70;;;;;;4945118;29;20058;-42
2020/12/15 04:01:17;;;;;;;0.65;0.22;;;19.10;58.70;;;;;;4954761;28;20050;-41
2020/12/15 04:03:46;;;;;;;1.88;0.10;;;19.20;58.70;;;;;;4950888;28;20094;-41
2020/12/15 04:06:19;;;;;;;0.30;0.10;;;19.10;58.60;;;;;;4951939;28;20047;-45
2020/12/15 04:08:54;;;;;;;0.63;0.10;;;19.20;58.70;;;;;;4957255;28;20438;-45
2020/12/15 04:11:21;;;;;;;0.10;0.10;;;19.20;58.70;;;;;;4941302;29;20590;-45
2020/12/15 04:13:52;;;;;;;0.85;0.10;;;19.20;58.70;;;;;;4960325;28;20513;-42
2020/12/15 04:16:20;;;;;;;0.57;0.20;;;19.20;58.70;;;;;;4939774;29;20061;-42
2020/12/15 04:19:06;;;;;;;0.30;0.20;;;19.10;58.70;;;;;;4941426;28;20078;-49
2020/12/15 04:21:33;;;;;;;0.20;0.10;;;19.20;58.70;;;;;;4952738;28;20057;-46
2020/12/15 04:24:03;;;;;;;1.15;0.15;;;19.20;58.70;;;;;;4964651;28;20511;-47
2020/12/15 04:26:38;;;;;;;1.55;0.73;;;19.20;58.70;;;;;;4966071;28;20577;-44
2020/12/15 04:29:05;;;;;;;0.20;0.20;;;19.20;58.70;;;;;;4948769;29;20051;-43
2020/12/15 04:31:46;;;;;;;0.63;0.10;;;19.10;58.60;;;;;;4956978;28;20066;-46
2020/12/15 04:34:15;;;;;;;1.38;0.20;;;19.10;58.60;;;;;;4957477;28;20102;-46
2020/12/15 04:36:42;;;;;;;0.43;0.20;;;19.10;58.60;;;;;;4952887;28;20071;-45
2020/12/15 04:39:08;;;;;;;0.30;0.10;;;19.10;58.60;;;;;;4956280;28;20582;-42
2020/12/15 04:41:44;;;;;;;2.97;0.10;;;19.10;58.60;;;;;;4942866;29;20043;-43
2020/12/15 04:44:11;;;;;;;0.45;0.20;;;19.10;58.60;;;;;;4956507;28;20051;-42
2020/12/15 04:46:51;;;;;;;0.52;0.20;;;19.10;58.60;;;;;;4959140;28;20042;-42
2020/12/15 04:49:21;;;;;;;2.40;0.10;;;19.20;58.60;;;;;;4966170;28;20481;-41
2020/12/15 04:52:01;;;;;;;0.85;0.32;;;19.10;58.60;;;;;;4962433;28;20059;-42
2020/12/15 04:54:39;;;;;;;0.20;0.10;;;19.20;58.70;;;;;;4944935;28;20070;-42
2020/12/15 04:57:18;;;;;;;0.20;0.10;;;19.10;58.70;;;;;;4966303;28;20154;-42
2020/12/15 04:59:47;;;;;;;0.38;0.20;;;19.10;58.70;;;;;;4961510;28;20053;-42
2020/12/15 05:02:40;;;;;;;1.10;0.20;;;19.10;58.70;;;;;;4954493;28;20062;-42
2020/12/15 05:05:07;;;;;;;0.20;0.20;;;19.10;58.70;;;;;;4948431;29;20043;-43
2020/12/15 05:07:39;;;;;;;0.25;0.10;;;19.10;58.70;;;;;;4957281;28;20043;-43
2020/12/15 05:10:18;;;;;;;0.10;0.10;;;19.10;58.70;;;;;;4938898;28;20043;-41
2020/12/15 05:13:06;;;;;;;0.55;0.10;;;19.10;58.70;;;;;;4933307;29;20872;-44
2020/12/15 05:15:34;;;;;;;0.90;0.10;;;19.10;58.70;;;;;;4917932;29;20051;-41
2020/12/15 05:18:21;;;;;;;0.75;0.10;;;19.10;58.70;;;;;;4930187;28;20581;-42
2020/12/15 05:20:50;;;;;;;0.68;0.15;;;19.10;58.70;;;;;;4929622;29;20055;-42
2020/12/15 05:23:26;;;;;;;0.82;0.43;;;19.10;58.70;;;;;;4929570;29;20035;-42
2020/12/15 05:26:03;;;;;;;0.10;0.10;;;19.10;58.70;;;;;;4923275;29;20110;-45
2020/12/15 05:28:35;;;;;;;0.22;0.10;;;19.10;58.70;;;;;;4922464;29;20043;-42
2020/12/15 05:31:02;;;;;;;0.20;0.20;;;19.10;58.70;;;;;;4932543;29;20051;-43
2020/12/15 05:33:50;;;;;;;1.00;0.10;;;19.10;58.70;;;;;;4927841;29;20648;-48
2020/12/15 05:36:36;;;;;;;0.15;0.10;;;19.10;58.70;;;;;;4945832;28;20071;-42
2020/12/15 05:39:35;;;;;;;0.30;0.10;;;19.10;58.70;;;;;;4946930;29;20050;-55
2020/12/15 05:42:10;;;;;;;0.40;0.10;;;19.10;58.70;;;;;;4931016;29;20051;-42
2020/12/15 05:44:44;;;;;;;0.40;0.10;;;19.10;58.70;;;;;;4932727;29;20058;-47
2020/12/15 05:47:21;;;;;;;0.80;0.80;;;19.10;58.70;;;;;;4942234;28;20058;-42
2020/12/15 05:49:58;;;;;;;0.22;0.10;;;19.10;58.70;;;;;;4935114;28;20050;-42
2020/12/15 05:52:25;;;;;;;0.57;0.10;;;19.10;58.70;;;;;;4968308;28;20514;-45
2020/12/15 05:55:03;;;;;;;0.45;0.20;;;19.10;58.70;;;;;;4967677;28;20458;-42
2020/12/15 05:57:31;;;;;;;0.40;0.13;;;19.10;58.60;;;;;;4968066;28;20059;-46
2020/12/15 06:00:08;;;;;;;0.22;0.10;;;19.10;58.60;;;;;;4970022;28;20423;-43
2020/12/15 06:02:40;;;;;;;0.10;0.10;;;19.10;58.60;;;;;;4966846;28;20055;-46
2020/12/15 06:05:07;;;;;;;0.38;0.10;;;19.10;58.60;;;;;;4966506;28;20129;-44
2020/12/15 06:07:34;;;;;;;0.10;0.10;;;19.10;58.60;;;;;;4968311;28;20455;-44
2020/12/15 06:10:03;;;;;;;0.20;0.10;;;19.10;58.50;;;;;;4965395;28;20063;-42
2020/12/15 06:12:29;;;;;;;0.10;0.10;;;19.10;58.50;;;;;;4968011;28;20042;-43
2020/12/15 06:14:57;;;;;;;1.75;0.10;;;19.10;58.50;;;;;;4968192;28;20078;-46
2020/12/15 06:17:24;;;;;;;1.00;0.10;;;19.10;58.50;;;;;;4966512;28;20125;-42
2020/12/15 06:19:52;;;;;;;1.02;0.10;;;19.10;58.50;;;;;;4967395;28;20042;-46
2020/12/15 06:22:21;;;;;;;0.20;0.03;;;19.10;58.50;;;;;;4967668;28;20053;-45
2020/12/15 06:24:58;;;;;;;2.28;0.10;;;19.10;58.50;;;;;;4967718;28;20042;-43
2020/12/15 06:27:32;;;;;;;1.38;0.10;;;19.10;58.40;;;;;;4967543;28;20066;-46
2020/12/15 06:29:59;;;;;;;0.45;0.10;;;19.10;58.40;;;;;;4969628;28;20085;-43
2020/12/15 06:32:27;;;;;;;0.60;0.10;;;19.10;58.40;;;;;;4967745;28;20105;-43
2020/12/15 06:34:54;;;;;;;0.40;0.30;;;19.10;58.40;;;;;;4965807;28;20038;-43
2020/12/15 06:37:22;;;;;;;0.10;0.10;;;19.10;58.40;;;;;;4967750;28;20134;-42
2020/12/15 06:39:54;;;;;;;1.67;0.10;;;19.10;58.40;;;;;;4968157;28;20073;-43
2020/12/15 06:42:36;;;;;;;0.30;0.17;;;19.10;58.40;;;;;;4968138;28;20046;-45
2020/12/15 06:45:07;;;;;;;0.10;0.10;;;19.00;58.40;;;;;;4969037;28;20133;-45
2020/12/15 06:47:36;;;;;;;0.10;0.10;;;19.10;58.50;;;;;;4968315;28;20189;-43
2020/12/15 06:50:11;;;;;;;0.25;0.10;;;19.10;58.40;;;;;;4967979;28;20463;-44
2020/12/15 06:52:38;;;;;;;0.10;0.10;;;19.10;58.40;;;;;;4967616;28;20138;-42
2020/12/15 06:55:04;;;;;;;0.45;0.00;;;19.10;58.40;;;;;;4964254;28;20039;-43
2020/12/15 06:57:32;;;;;;;0.10;0.10;;;19.10;58.40;;;;;;4967499;28;20136;-44
2020/12/15 07:00:00;;;;;;;0.38;0.10;;;19.10;58.40;;;;;;4965987;28;20055;-43
2020/12/15 07:02:31;;;;;;;0.17;0.10;;;19.10;58.50;;;;;;4965676;28;20779;-42
2020/12/15 07:05:18;;;;;;;0.10;0.03;;;19.10;58.50;;;;;;4958973;28;20435;-46
2020/12/15 07:07:50;;;;;;;0.50;0.17;;;19.10;58.50;;;;;;4959530;28;20511;-46
2020/12/15 07:10:18;;;;;;;0.52;0.10;;;19.10;58.50;;;;;;4965940;28;20097;-43
2020/12/15 07:12:47;;;;;;;0.55;0.00;;;19.00;58.40;;;;;;4965536;28;20069;-42
2020/12/15 07:15:14;;;;;;;1.27;0.10;;;19.10;58.60;;;;;;4965316;28;20055;-43
2020/12/15 07:17:45;;;;;;;1.88;1.77;;;19.10;58.60;;;;;;4968096;28;20398;-43
2020/12/15 07:20:14;;;;;;;0.70;0.43;;;19.10;58.90;;;;;;4962737;28;20138;-43
2020/12/15 07:22:41;;;;;;;1.58;0.10;;;19.10;59.00;;;;;;4948753;28;20800;-43
2020/12/15 07:25:08;;;;;;;0.40;0.20;;;19.10;59.10;;;;;;4966639;28;20058;-42
2020/12/15 07:27:35;;;;;;;0.32;0.20;;;19.10;59.10;;;;;;4952525;28;20051;-46
2020/12/15 07:30:06;;;;;;;4.63;0.10;;;19.10;59.10;;;;;;4968407;28;20138;-44
2020/12/15 07:32:36;;;;;;;0.95;0.10;;;19.20;59.20;;;;;;4966324;28;20137;-43
2020/12/15 07:35:05;;;;;;;0.63;0.10;;;19.10;59.20;;;;;;4964215;28;20046;-42
2020/12/15 07:37:35;;;;;;;1.33;0.40;;;19.20;59.20;;;;;;4965323;28;20053;-43
2020/12/15 07:40:04;;;;;;;0.10;0.10;;;19.20;59.20;;;;;;4962435;28;20134;-46
2020/12/15 07:42:31;;;;;;;1.73;0.10;;;19.20;59.20;;;;;;4968210;28;20108;-44
2020/12/15 07:44:59;;;;;;;2.58;0.10;;;19.30;59.30;;;;;;4959553;28;20093;-46
2020/12/15 07:47:27;;;;;;;0.52;0.10;;;19.30;59.30;;;;;;4968756;28;20403;-51
2020/12/15 07:49:55;;;;;;;0.20;0.10;;;19.30;59.20;;;;;;4963799;28;20110;-45
2020/12/15 07:52:29;;;;;;;1.85;0.40;;;19.40;59.20;;;;;;4970779;28;20133;-46
2020/12/15 07:55:05;;;;;;;4.13;0.20;;;19.40;59.20;;;;;;4970345;28;20607;-44
2020/12/15 07:57:35;;;;;;;0.77;0.10;;;19.40;59.10;;;;;;4967806;28;20055;-44
2020/12/15 08:00:10;;;;;;;0.55;0.10;;;19.40;59.00;;;;;;4971536;28;20450;-42
2020/12/15 08:02:42;;;;;;;0.10;0.00;;;19.50;59.00;;;;;;4971575;28;20035;-42
2020/12/15 08:05:11;;;;;;;1.33;0.10;;;19.50;59.00;;;;;;4967098;28;20050;-45
2020/12/15 08:07:49;;;;;;;0.13;0.10;;;19.50;58.90;;;;;;4967388;28;20054;-52
2020/12/15 08:10:23;;;;;;;0.10;0.10;;;19.50;58.80;;;;;;4969204;28;20035;-43
2020/12/15 08:12:50;;;;;;;0.45;0.45;;;19.50;58.80;;;;;;4958027;28;20046;-43
2020/12/15 08:15:17;;;;;;;0.20;0.13;;;19.60;58.80;;;;;;4967979;28;20104;-48
2020/12/15 08:17:46;;;;;;;0.70;0.20;;;19.60;58.70;;;;;;4971839;28;20047;-43
2020/12/15 08:20:15;;;;;;;0.30;0.30;;;19.60;58.70;;;;;;4961766;28;20051;-47
2020/12/15 08:22:45;;;;;;;1.50;0.10;;;19.60;58.60;;;;;;4965485;28;20057;-42
2020/12/15 08:25:13;;;;;;;0.10;0.10;;;19.70;58.60;;;;;;4969081;28;20161;-42
2020/12/15 08:27:40;;;;;;;0.55;0.30;;;19.70;58.60;;;;;;4968718;28;20067;-43
2020/12/15 08:30:15;;;;;;;0.10;0.10;;;19.70;58.50;;;;;;4968495;28;20058;-44
2020/12/15 08:32:46;;;;;;;0.47;0.20;;;19.80;58.60;;;;;;4970519;28;20054;-42
2020/12/15 08:35:13;;;;;;;0.85;0.17;;;19.80;58.50;;;;;;4967659;28;20054;-43
2020/12/15 08:37:43;;;;;;;1.17;0.10;;;19.80;58.50;;;;;;4969925;28;20050;-47
2020/12/15 08:40:11;;;;;;;0.80;0.20;;;19.80;58.40;;;;;;4968465;28;20046;-45
2020/12/15 08:42:44;;;;;;;2.13;0.20;;;19.80;58.40;;;;;;4967891;28;20059;-46
2020/12/15 08:45:12;;;;;;;0.20;0.10;;;19.80;58.40;;;;;;4964233;28;20055;-44
2020/12/15 08:47:45;;;;;;;0.25;0.10;;;19.80;58.30;;;;;;4965218;28;20050;-54
2020/12/15 08:50:14;;;;;;;1.40;0.20;;;19.90;58.20;;;;;;4964666;28;20058;-43
2020/12/15 08:52:41;;;;;;;1.17;0.22;;;19.80;58.10;;;;;;4964680;28;20042;-43
2020/12/15 08:55:07;;;;;;;0.68;0.10;;;19.90;58.20;;;;;;4968695;28;20047;-44
2020/12/15 08:57:35;;;;;;;0.45;0.10;;;19.90;58.10;;;;;;4962063;28;20084;-44
2020/12/15 09:00:14;;;;;;;1.85;0.30;;;19.90;58.10;;;;;;4968620;28;20051;-44
2020/12/15 09:02:41;;;;;;;2.13;0.10;;;20.00;58.00;;;;;;4957518;28;20109;-43
2020/12/15 09:05:08;;;;;;;0.73;0.20;;;20.00;58.00;;;;;;4965688;28;20545;-42
2020/12/15 09:07:47;;;;;;;0.45;0.17;;;20.00;58.00;;;;;;5120306;27;20362;-45
2020/12/15 09:10:15;;;;;;;0.47;0.10;;;20.00;57.90;;;;;;5116510;27;20086;-42
2020/12/15 09:12:46;;;;;;;0.52;0.15;;;20.00;57.90;;;;;;5120262;28;20047;-42
2020/12/15 09:15:15;;;;;;;0.40;0.10;;;20.10;57.90;;;;;;5106155;28;20460;-42
2020/12/15 09:17:41;;;;;;;0.82;0.30;;;20.10;57.90;;;;;;5121924;28;20506;-42
2020/12/15 09:20:09;;;;;;;1.05;0.10;;;20.10;57.80;;;;;;5109181;27;20052;-43
2020/12/15 09:22:37;;;;;;;1.42;0.10;;;20.10;57.80;;;;;;5109953;28;20051;-45
2020/12/15 09:25:12;;;;;;;0.17;0.10;;;20.10;57.70;;;;;;5103383;28;20698;-45
2020/12/15 09:27:39;;;;;;;7.50;0.30;;;20.20;57.80;;;;;;5101624;28;20056;-44
2020/12/15 09:30:06;;;;;;;0.30;0.15;;;20.20;57.80;;;;;;5104881;28;20418;-46
2020/12/15 09:32:33;;;;;;;1.00;0.20;;;20.20;57.70;;;;;;5102990;28;20043;-43
2020/12/15 09:34:59;;;;;;;2.17;0.60;;;20.20;57.70;;;;;;5107155;27;20044;-45
2020/12/15 09:37:26;;;;;;;2.08;0.10;;;20.20;57.60;;;;;;5099018;28;20131;-42
2020/12/15 09:39:52;;;;;;;7.72;0.35;;;20.20;57.60;;;;;;5102678;28;20068;-45
2020/12/15 09:42:20;;;;;;;0.50;0.25;;;20.20;57.60;;;;;;5104641;28;20499;-43
2020/12/15 09:44:47;;;;;;;1.20;0.22;;;20.30;57.50;;;;;;5111109;28;20135;-44
2020/12/15 09:47:13;;;;;;;0.55;0.10;;;20.30;57.50;;;;;;5104004;27;20048;-42
2020/12/15 09:49:40;;;;;;;2.65;0.20;;;20.30;57.40;;;;;;5095961;28;20091;-42
2020/12/15 09:52:07;;;;;;;2.53;0.15;;;20.30;57.30;;;;;;5107765;28;20036;-42
2020/12/15 09:54:33;;;;;;;0.35;0.10;;;20.30;57.20;;;;;;5092284;28;20067;-42
2020/12/15 09:57:00;;;;;;;2.28;0.10;;;20.30;57.10;;;;;;5106048;28;20174;-42
2020/12/15 09:59:28;;;;;;;0.35;0.20;;;20.30;57.00;;;;;;5101046;28;20076;-42
2020/12/15 10:01:54;;;;;;;1.13;0.10;;;20.40;57.00;;;;;;5110481;27;20360;-42
2020/12/15 10:04:21;;;;;;;0.77;0.20;;;20.40;57.00;;;;;;5114436;28;20054;-43
2020/12/15 10:06:48;;;;;;;2.00;0.20;;;20.40;56.90;;;;;;5111138;28;20094;-42
2020/12/15 10:09:15;;;;;;;1.50;0.20;;;20.40;56.70;;;;;;5106560;27;20039;-41
2020/12/15 10:11:42;;;;;;;1.35;0.20;;;20.40;56.70;;;;;;5104234;28;20051;-42
2020/12/15 10:14:09;;;;;;;1.80;0.25;;;20.40;56.70;;;;;;5116675;27;20096;-42
2020/12/15 10:16:36;;;;;;;1.75;0.40;;;20.40;56.60;;;;;;5117112;28;20043;-41
2020/12/15 10:19:03;;;;;;;0.55;0.20;;;20.40;56.60;;;;;;5104306;28;20047;-41
2020/12/15 10:21:30;;;;;;;1.35;0.30;;;20.50;56.50;;;;;;5091397;28;20464;-43
2020/12/15 10:23:56;;;;;;;0.43;0.32;;;20.40;56.40;;;;;;5095690;28;20414;-45
2020/12/15 10:26:24;;;;;;;0.93;0.10;;;20.50;56.50;;;;;;5105063;28;20139;-42
2020/12/15 10:28:53;;;;;;;1.63;0.40;;;20.50;56.50;;;;;;5097321;28;20044;-42
2020/12/15 10:31:20;;;;;;;0.35;0.22;;;20.50;56.40;;;;;;5089023;28;20055;-47
2020/12/15 10:33:47;;;;;;;6.80;0.60;;;20.50;56.40;;;;;;5087528;28;20051;-58
2020/12/15 10:36:15;;;;;;;4.47;0.70;;;20.50;56.40;;;;;;5087821;28;20126;-55
2020/12/15 10:38:42;;;;;;;0.57;0.40;;;20.50;56.30;;;;;;5092013;28;20052;-52
2020/12/15 10:41:08;;;;;;;4.72;0.50;;;20.50;56.30;;;;;;5092138;28;20081;-50
2020/12/15 10:43:35;;;;;;;2.58;0.35;;;20.50;56.30;;;;;;5104962;28;20054;-54
2020/12/15 10:46:02;;;;;;;0.55;0.30;;;20.50;56.30;;;;;;5101767;28;20410;-46
2020/12/15 10:48:29;;;;;;;1.77;0.32;;;20.60;56.20;;;;;;5095299;28;20083;-42
2020/12/15 10:50:57;;;;;;;1.42;0.77;;;20.50;56.10;;;;;;5109597;28;20047;-43
2020/12/15 10:53:23;;;;;;;2.47;1.00;;;20.60;56.20;;;;;;5091081;28;20163;-48
2020/12/15 10:55:51;;;;;;;2.70;0.57;;;20.60;56.20;;;;;;5088278;28;20404;-42
2020/12/15 10:58:18;;;;;;;5.20;0.50;;;20.60;56.90;;;;;;5083239;28;20093;-57
2020/12/15 11:00:45;;;;;;;1.73;0.50;;;20.60;56.30;;;;;;5089368;28;20130;-46
2020/12/15 11:03:11;;;;;;;2.00;0.57;;;20.60;56.30;;;;;;5087867;28;20044;-46
2020/12/15 11:05:38;;;;;;;2.22;0.40;;;20.60;56.20;;;;;;5087174;28;20048;-47
2020/12/15 11:08:06;;;;;;;1.63;0.38;;;20.60;56.00;;;;;;5086440;28;20507;-45
2020/12/15 11:10:32;;;;;;;4.90;0.95;;;20.70;55.90;;;;;;5088253;28;20099;-45
2020/12/15 11:13:01;;;;;;;2.72;1.15;;;20.60;55.70;;;;;;5085116;28;21220;-48
2020/12/15 11:15:29;;;;;;;4.57;0.63;;;20.60;55.60;;;;;;5087090;28;20647;-47
2020/12/15 11:17:55;;;;;;;1.67;0.40;;;20.70;55.50;;;;;;5087731;28;20537;-49
2020/12/15 11:20:22;;;;;;;4.97;0.85;;;20.70;55.40;;;;;;5087477;28;20071;-47
2020/12/15 11:22:48;;;;;;;3.95;0.30;;;20.70;55.40;;;;;;5087015;28;20040;-47
2020/12/15 11:25:17;;;;;;;2.10;0.70;;;20.70;55.30;;;;;;5086978;28;20127;-47
2020/12/15 11:27:44;;;;;;;2.60;0.38;;;20.70;55.20;;;;;;5085820;28;20064;-46
2020/12/15 11:30:12;;;;;;;1.17;0.43;;;20.70;55.20;;;;;;5086518;28;20048;-45
2020/12/15 11:32:39;;;;;;;2.28;0.30;;;20.70;55.10;;;;;;5088269;28;20048;-46
2020/12/15 11:35:05;;;;;;;1.67;0.35;;;20.70;55.10;;;;;;5085465;28;20036;-45
2020/12/15 11:37:32;;;;;;;4.32;0.43;;;20.70;55.00;;;;;;5084289;28;20063;-46
2020/12/15 11:39:58;;;;;;;3.20;0.43;;;20.70;55.20;;;;;;5087468;28;20040;-46
2020/12/15 11:42:26;;;;;;;1.65;0.38;;;20.70;55.00;;;;;;5086074;28;20089;-46
2020/12/15 11:44:52;;;;;;;1.33;0.43;;;20.70;55.00;;;;;;5087997;28;20044;-46
2020/12/15 11:47:21;;;;;;;2.22;0.35;;;20.70;55.10;;;;;;5087403;28;20051;-48
2020/12/15 11:49:48;;;;;;;3.38;0.55;;;20.70;54.90;;;;;;5087210;28;20044;-46
2020/12/15 11:52:15;;;;;;;3.72;0.68;;;20.70;55.40;;;;;;5085045;28;20047;-45
2020/12/15 11:54:41;;;;;;;2.10;1.20;;;20.70;55.70;;;;;;5082813;28;20051;-46
2020/12/15 11:57:08;;;;;;;3.33;0.93;;;20.70;55.80;;;;;;5083339;28;20043;-50
2020/12/15 11:59:37;;;;;;;2.85;1.17;;;20.70;55.90;;;;;;5081160;28;20044;-50
2020/12/15 12:02:03;;;;;;;2.40;0.52;;;20.70;56.00;;;;;;5080682;28;20583;-64
2020/12/15 12:04:30;;;;;;;4.65;0.80;;;20.70;56.10;;;;;;5081538;28;20123;-49
2020/12/15 12:06:56;;;;;;;1.70;0.60;;;20.70;56.10;;;;;;5080503;28;20090;-46
2020/12/15 12:09:23;;;;;;;2.53;0.60;;;20.70;56.20;;;;;;5081173;28;20834;-55
2020/12/15 12:11:50;;;;;;;2.47;0.95;;;20.70;56.10;;;;;;5081622;28;20138;-48
2020/12/15 12:14:16;;;;;;;2.85;0.60;;;20.70;56.20;;;;;;5080220;28;20131;-49
2020/12/15 12:16:44;;;;;;;2.13;0.40;;;20.70;56.30;;;;;;5081263;28;20078;-63
2020/12/15 12:19:10;;;;;;;4.47;0.40;;;20.70;56.20;;;;;;5081720;28;20466;-47
2020/12/15 12:21:39;;;;;;;0.70;0.10;;;20.70;55.60;;;;;;5080994;28;20052;-52
2020/12/15 12:24:05;;;;;;;0.40;0.20;;;20.70;54.60;;;;;;5102700;28;20107;-49
2020/12/15 12:26:32;;;;;;;2.63;0.40;;;20.70;54.20;;;;;;5099062;28;20055;-46
2020/12/15 12:28:59;;;;;;;2.83;0.85;;;20.70;53.70;;;;;;5089485;28;20133;-47
2020/12/15 12:31:25;;;;;;;6.82;1.00;;;20.70;54.50;;;;;;5087141;28;20039;-48
2020/12/15 12:33:53;;;;;;;1.40;0.40;;;20.60;54.80;;;;;;5087550;28;20460;-46
2020/12/15 12:36:20;;;;;;;1.23;0.10;;;20.70;55.20;;;;;;5088067;28;20052;-48
2020/12/15 12:38:46;;;;;;;2.50;0.20;;;20.70;54.30;;;;;;5087127;28;20309;-49
2020/12/15 12:41:16;;;;;;;1.40;0.40;;;20.70;53.70;;;;;;5086925;28;20407;-48
2020/12/15 12:43:42;;;;;;;3.80;0.20;;;20.70;53.20;;;;;;5085593;28;20040;-51
2020/12/15 12:46:14;;;;;;;3.40;0.35;;;20.70;53.20;;;;;;5086084;28;20124;-53
2020/12/15 12:48:40;;;;;;;1.50;0.10;;;20.70;53.00;;;;;;5086808;28;20047;-48
2020/12/15 12:51:08;;;;;;;1.17;0.57;;;20.70;53.20;;;;;;5088095;28;20127;-51
2020/12/15 12:53:35;;;;;;;5.97;0.65;;;20.70;53.20;;;;;;5086407;28;20044;-47
2020/12/15 12:56:04;;;;;;;3.67;0.52;;;20.70;53.20;;;;;;5087044;28;20484;-51
2020/12/15 12:58:30;;;;;;;1.02;0.30;;;20.70;53.60;;;;;;5086273;28;20051;-47
2020/12/15 13:00:57;;;;;;;5.95;0.45;;;20.70;53.10;;;;;;5085557;28;20815;-49
2020/12/15 13:03:23;;;;;;;2.75;0.30;;;20.70;53.00;;;;;;5086515;28;20135;-50